createdAt,value
2022-09-02T00:00:33.330Z,24.80
2022-09-02T00:01:44.821Z,24.81
2022-09-02T00:02:49.760Z,24.81
2022-09-02T00:03:55.185Z,24.81
2022-09-02T00:04:57.097Z,24.80
2022-09-02T00:05:58.842Z,24.77
2022-09-02T00:07:00.599Z,24.78
2022-09-02T00:08:02.762Z,24.76
2022-09-02T00:09:07.534Z,24.76
2022-09-02T00:10:09.765Z,24.76
2022-09-02T00:11:17.396Z,24.74
2022-09-02T00:12:19.214Z,24.76
2022-09-02T00:13:21.829Z,24.75
2022-09-02T00:14:28.457Z,24.74
2022-09-02T00:15:30.259Z,24.75
2022-09-02T00:16:33.602Z,24.68
2022-09-02T00:17:35.575Z,24.73
2022-09-02T00:18:37.866Z,24.71
2022-09-02T00:19:39.683Z,24.71
2022-09-02T00:20:43.397Z,24.70
2022-09-02T00:21:45.727Z,24.65
2022-09-02T00:22:48.074Z,24.70
2022-09-02T00:23:49.899Z,24.64
2022-09-02T00:24:51.852Z,24.69
2022-09-02T00:25:53.610Z,24.68
2022-09-02T00:26:56.880Z,24.66
2022-09-02T00:27:59.132Z,24.67
2022-09-02T00:29:01.413Z,24.65
2022-09-02T00:30:04.922Z,24.66
2022-09-02T00:31:06.932Z,24.66
2022-09-02T00:32:08.790Z,24.58
2022-09-02T00:33:12.056Z,24.64
2022-09-02T00:34:15.013Z,24.64
2022-09-02T00:35:17.059Z,24.59
2022-09-02T00:36:21.106Z,24.65
2022-09-02T00:37:23.054Z,24.58
2022-09-02T00:38:24.883Z,24.63
2022-09-02T00:39:26.614Z,24.61
2022-09-02T00:40:29.255Z,24.61
2022-09-02T00:41:32.536Z,24.61
2022-09-02T00:42:35.317Z,24.58
2022-09-02T00:43:43.306Z,24.55
2022-09-02T00:44:45.201Z,24.62
2022-09-02T00:45:47.098Z,24.59
2022-09-02T00:46:48.957Z,24.38
2022-09-02T00:47:51.923Z,24.59
2022-09-02T00:49:10.652Z,24.61
2022-09-02T00:50:15.920Z,24.59
2022-09-02T00:51:17.898Z,24.61
2022-09-02T00:52:26.410Z,24.59
2022-09-02T00:53:28.852Z,24.59
2022-09-02T00:54:32.853Z,24.57
2022-09-02T00:55:44.970Z,24.49
2022-09-02T00:56:48.069Z,24.58
2022-09-02T00:58:00.923Z,24.57
2022-09-02T00:59:03.089Z,24.58
2022-09-02T01:00:42.408Z,24.55
2022-09-02T01:01:44.730Z,24.63
2022-09-02T01:02:51.467Z,24.60
2022-09-02T01:03:53.850Z,24.53
2022-09-02T01:04:56.907Z,24.51
2022-09-02T01:06:01.134Z,24.50
2022-09-02T01:07:04.533Z,24.52
2022-09-02T01:08:09.705Z,24.51
2022-09-02T01:09:16.542Z,24.50
2022-09-02T01:10:22.157Z,24.49
2022-09-02T01:11:32.055Z,24.46
2022-09-02T01:12:34.230Z,24.51
2022-09-02T01:13:40.991Z,24.47
2022-09-02T01:14:43.112Z,24.48
2022-09-02T01:15:52.204Z,24.46
2022-09-02T01:16:56.435Z,24.47
2022-09-02T01:17:59.107Z,24.46
2022-09-02T01:19:10.423Z,24.45
2022-09-02T01:20:17.163Z,24.43
2022-09-02T01:21:19.369Z,24.46
2022-09-02T01:22:25.195Z,24.44
2022-09-02T01:23:28.966Z,24.44
2022-09-02T01:24:34.826Z,24.45
2022-09-02T01:25:36.653Z,24.42
2022-09-02T01:26:38.524Z,24.43
2022-09-02T01:27:40.514Z,24.40
2022-09-02T01:28:42.478Z,24.42
2022-09-02T01:29:45.182Z,24.40
2022-09-02T01:30:50.843Z,24.39
2022-09-02T01:31:53.816Z,24.40
2022-09-02T01:32:55.895Z,24.40
2022-09-02T01:33:59.207Z,24.39
2022-09-02T01:35:00.980Z,24.40
2022-09-02T01:36:04.770Z,24.38
2022-09-02T01:37:07.194Z,24.38
2022-09-02T01:38:09.829Z,24.32
2022-09-02T01:39:13.454Z,24.38
2022-09-02T01:40:17.614Z,24.38
2022-09-02T01:41:19.531Z,24.33
2022-09-02T01:42:21.614Z,24.38
2022-09-02T01:43:26.719Z,24.35
2022-09-02T01:44:28.895Z,24.32
2022-09-02T01:45:30.854Z,24.37
2022-09-02T01:46:33.860Z,24.36
2022-09-02T01:47:36.315Z,24.36
2022-09-02T01:48:38.245Z,24.36
2022-09-02T01:49:40.889Z,24.27
2022-09-02T01:50:48.820Z,24.34
2022-09-02T01:51:55.114Z,24.35
2022-09-02T01:53:01.737Z,24.35
2022-09-02T01:54:03.766Z,24.35
2022-09-02T01:55:06.358Z,24.34
2022-09-02T01:56:09.507Z,24.30
2022-09-02T01:57:12.501Z,24.31
2022-09-02T01:58:14.421Z,24.33
2022-09-02T01:59:18.093Z,24.30
2022-09-02T02:00:20.122Z,24.25
2022-09-02T02:01:22.140Z,24.30
2022-09-02T02:02:24.559Z,24.30
2022-09-02T02:03:27.594Z,24.29
2022-09-02T02:04:33.579Z,24.30
2022-09-02T02:05:35.784Z,24.29
2022-09-02T02:06:43.274Z,24.26
2022-09-02T02:07:46.568Z,24.31
2022-09-02T02:08:48.382Z,24.29
2022-09-02T02:09:50.631Z,24.27
2022-09-02T02:10:52.455Z,24.28
2022-09-02T02:11:54.591Z,24.27
2022-09-02T02:12:56.946Z,24.27
2022-09-02T02:13:59.078Z,24.26
2022-09-02T02:15:03.338Z,24.26
2022-09-02T02:16:05.353Z,24.26
2022-09-02T02:17:07.323Z,24.22
2022-09-02T02:18:09.575Z,24.25
2022-09-02T02:19:11.402Z,24.24
2022-09-02T02:20:16.287Z,24.23
2022-09-02T02:21:18.186Z,24.23
2022-09-02T02:22:22.166Z,24.25
2022-09-02T02:23:24.716Z,24.21
2022-09-02T02:24:26.890Z,24.23
2022-09-02T02:25:29.702Z,24.16
2022-09-02T02:26:32.131Z,24.23
2022-09-02T02:27:34.540Z,24.22
2022-09-02T02:28:39.795Z,24.23
2022-09-02T02:29:41.578Z,24.18
2022-09-02T02:30:43.429Z,24.21
2022-09-02T02:31:46.309Z,24.20
2022-09-02T02:32:48.348Z,24.21
2022-09-02T02:33:53.171Z,24.21
2022-09-02T02:34:55.223Z,24.20
2022-09-02T02:35:57.387Z,24.20
2022-09-02T02:36:59.394Z,24.20
2022-09-02T02:38:03.829Z,24.20
2022-09-02T02:39:09.153Z,24.13
2022-09-02T02:40:13.147Z,24.14
2022-09-02T02:41:15.816Z,24.20
2022-09-02T02:42:17.825Z,24.18
2022-09-02T02:43:21.018Z,24.18
2022-09-02T02:44:24.015Z,24.18
2022-09-02T02:45:26.478Z,24.17
2022-09-02T02:46:31.151Z,24.14
2022-09-02T02:47:33.084Z,24.11
2022-09-02T02:48:36.711Z,24.16
2022-09-02T02:49:41.735Z,24.15
2022-09-02T02:50:43.631Z,24.16
2022-09-02T02:51:45.534Z,24.15
2022-09-02T02:52:47.391Z,24.15
2022-09-02T02:53:49.183Z,24.14
2022-09-02T02:54:51.065Z,24.14
2022-09-02T02:55:52.803Z,24.13
2022-09-02T02:56:54.642Z,24.12
2022-09-02T02:57:56.525Z,24.12
2022-09-02T02:59:01.465Z,24.06
2022-09-02T03:00:13.255Z,24.13
2022-09-02T03:01:15.074Z,24.16
2022-09-02T03:02:17.606Z,24.13
2022-09-02T03:03:20.138Z,24.06
2022-09-02T03:04:25.491Z,24.11
2022-09-02T03:05:28.016Z,24.10
2022-09-02T03:06:30.996Z,24.10
2022-09-02T03:07:32.982Z,24.09
2022-09-02T03:08:36.888Z,24.08
2022-09-02T03:09:41.005Z,24.09
2022-09-02T03:10:44.321Z,24.10
2022-09-02T03:11:47.537Z,24.08
2022-09-02T03:12:50.971Z,24.08
2022-09-02T03:13:55.256Z,24.07
2022-09-02T03:14:57.685Z,24.08
2022-09-02T03:16:01.204Z,24.08
2022-09-02T03:17:04.326Z,24.07
2022-09-02T03:18:06.920Z,24.08
2022-09-02T03:19:08.791Z,24.07
2022-09-02T03:20:11.249Z,24.07
2022-09-02T03:21:18.229Z,24.05
2022-09-02T03:22:20.603Z,24.06
2022-09-02T03:23:22.498Z,24.06
2022-09-02T03:24:25.398Z,24.04
2022-09-02T03:25:34.891Z,24.02
2022-09-02T03:26:43.091Z,24.06
2022-09-02T03:27:47.555Z,24.05
2022-09-02T03:28:51.790Z,24.04
2022-09-02T03:29:53.717Z,24.04
2022-09-02T03:30:55.546Z,24.02
2022-09-02T03:31:59.022Z,24.01
2022-09-02T03:33:05.974Z,24.02
2022-09-02T03:34:08.726Z,24.02
2022-09-02T03:35:15.330Z,24.00
2022-09-02T03:36:25.969Z,24.01
2022-09-02T03:37:28.378Z,24.02
2022-09-02T03:38:30.330Z,24.00
2022-09-02T03:39:32.095Z,23.99
2022-09-02T03:40:34.064Z,23.99
2022-09-02T03:41:37.489Z,23.98
2022-09-02T03:42:40.067Z,23.98
2022-09-02T03:43:42.424Z,23.97
2022-09-02T03:44:44.728Z,23.96
2022-09-02T03:45:46.554Z,23.96
2022-09-02T03:46:49.786Z,23.96
2022-09-02T03:47:54.017Z,23.96
2022-09-02T03:48:59.774Z,23.95
2022-09-02T03:50:03.567Z,23.95
2022-09-02T03:51:05.800Z,23.97
2022-09-02T03:52:07.606Z,23.96
2022-09-02T03:53:11.613Z,23.92
2022-09-02T03:54:23.179Z,23.97
2022-09-02T03:55:27.001Z,23.92
2022-09-02T03:56:29.454Z,23.96
2022-09-02T03:57:32.107Z,23.88
2022-09-02T03:58:36.522Z,23.93
2022-09-02T03:59:38.742Z,23.92
2022-09-02T04:00:41.561Z,23.91
2022-09-02T04:01:43.391Z,23.90
2022-09-02T04:02:45.672Z,23.89
2022-09-02T04:03:53.672Z,23.89
2022-09-02T04:04:55.946Z,23.86
2022-09-02T04:05:58.315Z,23.89
2022-09-02T04:07:02.514Z,23.89
2022-09-02T04:08:04.407Z,23.90
2022-09-02T04:09:07.368Z,23.88
2022-09-02T04:10:11.090Z,23.88
2022-09-02T04:11:17.854Z,23.87
2022-09-02T04:12:21.665Z,23.90
2022-09-02T04:13:25.465Z,23.89
2022-09-02T04:14:27.626Z,23.88
2022-09-02T04:15:29.761Z,23.86
2022-09-02T04:16:31.732Z,23.86
2022-09-02T04:17:41.850Z,23.86
2022-09-02T04:18:46.064Z,23.89
2022-09-02T04:19:47.904Z,23.83
2022-09-02T04:20:49.843Z,23.83
2022-09-02T04:21:51.684Z,23.85
2022-09-02T04:22:53.531Z,23.85
2022-09-02T04:23:56.907Z,23.84
2022-09-02T04:24:58.736Z,23.79
2022-09-02T04:26:09.295Z,23.84
2022-09-02T04:27:11.938Z,23.86
2022-09-02T04:28:13.867Z,23.77
2022-09-02T04:29:16.715Z,23.84
2022-09-02T04:30:19.407Z,23.83
2022-09-02T04:31:25.759Z,23.82
2022-09-02T04:32:28.726Z,23.84
2022-09-02T04:33:30.502Z,23.83
2022-09-02T04:34:32.257Z,23.82
2022-09-02T04:35:36.024Z,23.83
2022-09-02T04:36:38.238Z,23.81
2022-09-02T04:37:43.235Z,23.75
2022-09-02T04:38:47.813Z,23.78
2022-09-02T04:39:52.800Z,23.82
2022-09-02T04:40:54.676Z,23.81
2022-09-02T04:41:57.626Z,23.78
2022-09-02T04:43:01.059Z,23.80
2022-09-02T04:44:05.075Z,23.80
2022-09-02T04:45:11.822Z,23.81
2022-09-02T04:46:16.471Z,23.74
2022-09-02T04:47:20.106Z,23.75
2022-09-02T04:48:23.153Z,23.78
2022-09-02T04:49:25.366Z,23.61
2022-09-02T04:50:28.966Z,23.80
2022-09-02T04:51:33.053Z,23.80
2022-09-02T04:52:36.617Z,23.80
2022-09-02T04:53:39.330Z,23.79
2022-09-02T04:54:41.356Z,23.79
2022-09-02T04:55:43.344Z,23.77
2022-09-02T04:56:47.334Z,23.78
2022-09-02T04:57:49.730Z,23.77
2022-09-02T04:58:53.163Z,23.77
2022-09-02T04:59:57.166Z,23.78
2022-09-02T05:00:59.681Z,23.78
2022-09-02T05:02:01.831Z,23.78
2022-09-02T05:03:06.811Z,23.77
2022-09-02T05:04:09.892Z,23.77
2022-09-02T05:05:16.176Z,23.77
2022-09-02T05:06:21.123Z,23.75
2022-09-02T05:07:23.022Z,23.77
2022-09-02T05:08:24.837Z,23.67
2022-09-02T05:09:26.626Z,23.71
2022-09-02T05:10:35.176Z,23.80
2022-09-02T05:11:38.832Z,23.78
2022-09-02T05:12:41.970Z,23.82
2022-09-02T05:13:48.947Z,23.84
2022-09-02T05:14:51.260Z,23.86
2022-09-02T05:15:55.139Z,23.88
2022-09-02T05:16:58.066Z,23.92
2022-09-02T05:17:59.815Z,23.93
2022-09-02T05:19:01.869Z,23.95
2022-09-02T05:20:10.939Z,24.00
2022-09-02T05:21:14.171Z,24.02
2022-09-02T05:22:16.823Z,24.07
2022-09-02T05:23:19.618Z,24.09
2022-09-02T05:24:26.299Z,24.11
2022-09-02T05:25:29.479Z,24.16
2022-09-02T05:26:33.626Z,24.17
2022-09-02T05:27:36.407Z,24.22
2022-09-02T05:28:39.315Z,24.25
2022-09-02T05:29:45.119Z,24.29
2022-09-02T05:30:47.846Z,24.33
2022-09-02T05:31:51.225Z,24.35
2022-09-02T05:32:55.437Z,24.38
2022-09-02T05:33:58.374Z,24.42
2022-09-02T05:35:00.263Z,24.43
2022-09-02T05:36:03.188Z,24.44
2022-09-02T05:37:05.678Z,24.47
2022-09-02T05:38:10.027Z,24.52
2022-09-02T05:39:12.048Z,24.53
2022-09-02T05:40:15.092Z,24.55
2022-09-02T05:41:24.202Z,24.56
2022-09-02T05:42:29.871Z,24.62
2022-09-02T05:43:32.025Z,24.62
2022-09-02T05:44:33.960Z,24.64
2022-09-02T05:45:39.165Z,24.58
2022-09-02T05:46:44.459Z,24.60
2022-09-02T05:47:48.680Z,24.70
2022-09-02T05:49:12.561Z,24.66
2022-09-02T05:50:19.028Z,24.80
2022-09-02T05:51:23.572Z,24.79
2022-09-02T05:52:27.478Z,24.79
2022-09-02T05:53:30.894Z,24.73
2022-09-02T05:54:37.483Z,24.79
2022-09-02T05:55:42.969Z,24.82
2022-09-02T05:56:46.883Z,24.82
2022-09-02T05:57:49.619Z,24.78
2022-09-02T05:58:51.806Z,24.84
2022-09-02T05:59:57.017Z,24.84
2022-09-02T06:01:12.659Z,24.88
2022-09-02T06:02:16.641Z,24.90
2022-09-02T06:03:21.071Z,24.90
2022-09-02T06:04:24.923Z,24.90
2022-09-02T06:05:27.447Z,24.91
2022-09-02T06:06:42.359Z,24.90
2022-09-02T06:07:44.994Z,24.93
2022-09-02T06:08:47.823Z,24.93
2022-09-02T06:09:50.290Z,24.92
2022-09-02T06:10:53.705Z,24.93
2022-09-02T06:11:59.119Z,24.94
2022-09-02T06:13:04.642Z,24.95
2022-09-02T06:14:09.222Z,24.87
2022-09-02T06:15:14.929Z,24.95
2022-09-02T06:16:20.375Z,24.96
2022-09-02T06:17:23.265Z,24.92
2022-09-02T06:18:27.314Z,24.97
2022-09-02T06:19:32.763Z,24.97
2022-09-02T06:20:42.022Z,24.92
2022-09-02T06:21:44.796Z,24.95
2022-09-02T06:22:46.651Z,25.01
2022-09-02T06:23:49.743Z,25.02
2022-09-02T06:24:52.569Z,25.00
2022-09-02T06:25:59.786Z,24.99
2022-09-02T06:27:01.947Z,25.03
2022-09-02T06:28:07.222Z,25.05
2022-09-02T06:29:14.348Z,25.07
2022-09-02T06:30:16.249Z,25.00
2022-09-02T06:31:21.916Z,25.06
2022-09-02T06:32:24.706Z,25.09
2022-09-02T06:33:32.529Z,25.05
2022-09-02T06:34:35.427Z,25.11
2022-09-02T06:35:40.759Z,25.10
2022-09-02T06:36:47.762Z,25.14
2022-09-02T06:37:51.259Z,25.15
2022-09-02T06:38:55.367Z,25.15
2022-09-02T06:39:58.495Z,25.17
2022-09-02T06:41:02.146Z,25.19
2022-09-02T06:42:11.011Z,25.21
2022-09-02T06:43:21.483Z,25.24
2022-09-02T06:44:46.746Z,25.30
2022-09-02T06:45:48.640Z,25.28
2022-09-02T06:46:56.735Z,25.21
2022-09-02T06:47:58.547Z,25.28
2022-09-02T06:49:02.411Z,25.28
2022-09-02T06:50:04.759Z,25.28
2022-09-02T06:51:07.455Z,25.23
2022-09-02T06:52:09.699Z,25.18
2022-09-02T06:53:12.906Z,25.31
2022-09-02T06:54:17.561Z,25.31
2022-09-02T06:55:24.111Z,25.35
2022-09-02T06:56:27.815Z,25.31
2022-09-02T06:57:34.133Z,25.35
2022-09-02T06:58:41.134Z,25.37
2022-09-02T06:59:46.781Z,25.38
2022-09-02T07:00:49.703Z,25.38
2022-09-02T07:01:51.899Z,25.38
2022-09-02T07:03:14.963Z,25.39
2022-09-02T07:04:36.070Z,25.43
2022-09-02T07:05:40.198Z,25.43
2022-09-02T07:06:46.146Z,25.43
2022-09-02T07:07:50.071Z,25.44
2022-09-02T07:08:51.958Z,25.43
2022-09-02T07:09:55.656Z,25.42
2022-09-02T07:10:57.786Z,25.40
2022-09-02T07:12:05.039Z,25.41
2022-09-02T07:13:11.267Z,25.45
2022-09-02T07:14:13.087Z,25.37
2022-09-02T07:15:15.056Z,25.42
2022-09-02T07:16:22.716Z,25.44
2022-09-02T07:17:29.808Z,25.47
2022-09-02T07:18:36.803Z,25.47
2022-09-02T07:19:39.280Z,25.46
2022-09-02T07:20:45.777Z,25.44
2022-09-02T07:21:49.554Z,25.40
2022-09-02T07:24:01.337Z,25.49
2022-09-02T07:25:03.935Z,25.48
2022-09-02T07:26:14.486Z,25.48
2022-09-02T07:27:20.440Z,25.51
2022-09-02T07:28:23.946Z,25.50
2022-09-02T07:29:25.789Z,25.48
2022-09-02T07:30:27.758Z,25.48
2022-09-02T07:31:48.734Z,25.52
2022-09-02T07:32:53.042Z,25.50
2022-09-02T07:33:59.149Z,25.49
2022-09-02T07:35:02.127Z,25.50
2022-09-02T07:36:06.129Z,25.46
2022-09-02T07:37:13.382Z,25.46
2022-09-02T07:38:17.619Z,25.49
2022-09-02T07:39:19.919Z,25.49
2022-09-02T07:40:23.638Z,25.48
2022-09-02T07:41:27.080Z,25.46
2022-09-02T07:42:29.575Z,25.48
2022-09-02T07:43:33.385Z,25.46
2022-09-02T07:44:36.783Z,25.48
2022-09-02T07:45:40.069Z,25.48
2022-09-02T07:46:43.146Z,25.48
2022-09-02T07:47:50.131Z,25.48
2022-09-02T07:48:52.254Z,25.48
2022-09-02T07:51:18.169Z,25.48
2022-09-02T07:52:20.086Z,25.51
2022-09-02T07:53:22.596Z,25.50
2022-09-02T07:54:26.945Z,25.48
2022-09-02T07:55:31.168Z,25.49
2022-09-02T07:56:33.941Z,25.48
2022-09-02T07:57:35.831Z,25.48
2022-09-02T07:58:38.626Z,25.48
2022-09-02T07:59:40.564Z,25.48
2022-09-02T08:00:43.473Z,25.46
2022-09-02T08:01:48.419Z,25.48
2022-09-02T08:02:51.459Z,25.49
2022-09-02T08:04:01.475Z,25.48
2022-09-02T08:05:08.259Z,25.51
2022-09-02T08:06:10.534Z,25.49
2022-09-02T08:07:12.683Z,25.49
2022-09-02T08:08:16.709Z,25.38
2022-09-02T08:09:18.926Z,25.47
2022-09-02T08:10:20.854Z,25.48
2022-09-02T08:11:23.708Z,25.48
2022-09-02T08:12:25.527Z,25.48
2022-09-02T08:13:27.973Z,25.48
2022-09-02T08:14:30.031Z,25.48
2022-09-02T08:15:32.856Z,25.40
2022-09-02T08:16:34.811Z,25.34
2022-09-02T08:17:40.552Z,25.30
2022-09-02T08:18:42.745Z,25.48
2022-09-02T08:19:45.240Z,25.45
2022-09-02T08:20:47.832Z,25.48
2022-09-02T08:21:50.061Z,25.48
2022-09-02T08:23:00.933Z,25.49
2022-09-02T08:24:12.815Z,25.44
2022-09-02T08:25:15.122Z,25.51
2022-09-02T08:26:17.994Z,25.50
2022-09-02T08:27:19.749Z,25.42
2022-09-02T08:28:21.598Z,25.49
2022-09-02T08:29:23.694Z,25.48
2022-09-02T08:30:25.566Z,25.41
2022-09-02T08:31:27.400Z,25.46
2022-09-02T08:32:29.422Z,25.46
2022-09-02T08:33:31.167Z,25.45
2022-09-02T08:34:33.270Z,25.46
2022-09-02T08:35:35.210Z,25.46
2022-09-02T08:36:37.058Z,25.46
2022-09-02T08:37:39.222Z,25.44
2022-09-02T08:38:42.505Z,25.46
2022-09-02T08:39:44.286Z,25.48
2022-09-02T08:40:46.243Z,25.48
2022-09-02T08:42:07.920Z,25.51
2022-09-02T08:43:41.784Z,25.49
2022-09-02T08:44:43.608Z,25.57
2022-09-02T08:45:46.942Z,25.50
2022-09-02T08:46:52.274Z,25.50
2022-09-02T08:48:14.679Z,25.46
2022-09-02T08:49:22.300Z,25.54
2022-09-02T08:50:24.746Z,25.47
2022-09-02T08:51:33.772Z,25.51
2022-09-02T08:52:46.063Z,25.52
2022-09-02T08:54:05.780Z,25.48
2022-09-02T08:55:14.063Z,25.53
2022-09-02T08:56:18.382Z,25.54
2022-09-02T08:57:20.342Z,25.48
2022-09-02T08:58:29.159Z,25.50
2022-09-02T08:59:32.216Z,25.51
2022-09-02T09:00:40.641Z,25.49
2022-09-02T09:01:48.126Z,25.50
2022-09-02T09:03:29.241Z,25.58
2022-09-02T09:04:52.576Z,25.60
2022-09-02T09:06:19.132Z,25.62
2022-09-02T09:07:29.788Z,25.59
2022-09-02T09:08:43.975Z,25.56
2022-09-02T09:09:51.706Z,25.38
2022-09-02T09:11:04.228Z,25.53
2022-09-02T09:12:27.226Z,25.53
2022-09-02T09:13:41.637Z,25.56
2022-09-02T09:14:46.077Z,25.56
2022-09-02T09:15:55.550Z,25.53
2022-09-02T09:17:10.341Z,25.51
2022-09-02T09:18:18.631Z,25.52
2022-09-02T09:19:36.581Z,25.52
2022-09-02T09:20:42.178Z,25.50
2022-09-02T09:21:44.601Z,25.53
2022-09-02T09:22:47.987Z,25.51
2022-09-02T09:23:54.107Z,25.39
2022-09-02T09:24:57.736Z,25.49
2022-09-02T09:26:12.411Z,25.49
2022-09-02T09:27:17.035Z,25.51
2022-09-02T09:28:18.854Z,25.51
2022-09-02T09:29:20.840Z,25.49
2022-09-02T09:30:23.275Z,25.49
2022-09-02T09:31:32.540Z,25.48
2022-09-02T09:32:39.849Z,25.50
2022-09-02T09:33:59.182Z,25.53
2022-09-02T09:35:07.965Z,25.55
2022-09-02T09:36:10.130Z,25.54
2022-09-02T09:37:44.411Z,25.55
2022-09-02T09:38:46.363Z,25.58
2022-09-02T09:39:48.626Z,25.54
2022-09-02T09:40:50.552Z,25.53
2022-09-02T09:41:58.390Z,25.52
2022-09-02T09:43:03.467Z,25.52
2022-09-02T09:44:07.447Z,25.51
2022-09-02T09:45:42.915Z,25.57
2022-09-02T09:46:44.702Z,25.60
2022-09-02T09:48:06.811Z,25.56
2022-09-02T09:49:08.934Z,25.53
2022-09-02T09:50:17.243Z,25.56
2022-09-02T09:51:19.261Z,25.52
2022-09-02T09:52:26.303Z,25.53
2022-09-02T09:53:34.260Z,25.54
2022-09-02T09:54:36.010Z,25.54
2022-09-02T09:55:55.784Z,25.55
2022-09-02T09:57:15.997Z,25.59
2022-09-02T09:58:18.915Z,25.59
2022-09-02T09:59:49.999Z,25.58
2022-09-02T10:00:56.393Z,25.61
2022-09-02T10:01:58.459Z,25.59
2022-09-02T10:03:05.227Z,25.56
2022-09-02T10:04:41.873Z,25.53
2022-09-02T10:05:44.986Z,25.63
2022-09-02T10:06:48.531Z,25.60
2022-09-02T10:08:03.346Z,25.58
2022-09-02T10:09:25.666Z,25.55
2022-09-02T10:10:30.933Z,25.62
2022-09-02T10:11:36.027Z,25.59
2022-09-02T10:12:37.875Z,25.59
2022-09-02T10:13:39.845Z,25.58
2022-09-02T10:14:45.851Z,25.57
2022-09-02T10:16:25.479Z,25.61
2022-09-02T10:17:32.492Z,25.64
2022-09-02T10:18:44.813Z,25.57
2022-09-02T10:19:58.033Z,25.62
2022-09-02T10:21:41.969Z,25.66
2022-09-02T10:23:04.905Z,25.67
2022-09-02T10:24:23.463Z,25.66
2022-09-02T10:26:06.311Z,25.71
2022-09-02T10:27:15.068Z,25.63
2022-09-02T10:28:41.015Z,25.65
2022-09-02T10:29:59.111Z,25.69
2022-09-02T10:31:12.094Z,25.66
2022-09-02T10:32:35.182Z,25.68
2022-09-02T10:33:42.219Z,25.66
2022-09-02T10:35:11.237Z,25.68
2022-09-02T10:36:34.958Z,25.69
2022-09-02T10:38:00.815Z,25.67
2022-09-02T10:39:34.503Z,25.74
2022-09-02T10:40:50.815Z,25.69
2022-09-02T10:41:56.280Z,25.69
2022-09-02T10:43:03.886Z,25.67
2022-09-02T10:44:11.435Z,25.63
2022-09-02T10:45:24.219Z,25.63
2022-09-02T10:46:31.098Z,25.65
2022-09-02T10:47:40.423Z,25.63
2022-09-02T10:49:09.155Z,25.64
2022-09-02T10:50:23.528Z,25.63
2022-09-02T10:51:56.257Z,25.72
2022-09-02T10:53:28.247Z,25.64
2022-09-02T10:54:38.743Z,25.73
2022-09-02T10:55:58.964Z,25.73
2022-09-02T10:57:11.789Z,25.69
2022-09-02T10:58:22.430Z,25.69
2022-09-02T10:59:38.339Z,25.67
2022-09-02T11:00:44.552Z,25.68
2022-09-02T11:01:59.258Z,25.69
2022-09-02T11:03:06.882Z,25.68
2022-09-02T11:04:17.011Z,25.66
2022-09-02T11:05:39.943Z,25.68
2022-09-02T11:07:03.081Z,25.69
2022-09-02T11:08:15.955Z,25.71
2022-09-02T11:09:33.251Z,25.72
2022-09-02T11:10:56.907Z,25.71
2022-09-02T11:12:16.881Z,25.74
2022-09-02T11:13:44.620Z,25.73
2022-09-02T11:15:12.588Z,25.77
2022-09-02T11:16:24.507Z,25.74
2022-09-02T11:18:05.443Z,25.75
2022-09-02T11:19:22.320Z,25.77
2022-09-02T11:20:32.168Z,25.74
2022-09-02T11:21:48.506Z,25.71
2022-09-02T11:22:58.211Z,25.71
2022-09-02T11:24:11.159Z,25.69
2022-09-02T11:25:20.119Z,25.69
2022-09-02T11:26:29.036Z,25.68
2022-09-02T11:28:14.432Z,25.75
2022-09-02T11:29:37.842Z,25.76
2022-09-02T11:30:57.889Z,25.78
2022-09-02T11:32:10.751Z,25.75
2022-09-02T11:33:31.099Z,25.74
2022-09-02T11:34:47.774Z,25.75
2022-09-02T11:35:50.984Z,25.74
2022-09-02T11:36:52.951Z,25.70
2022-09-02T11:38:04.110Z,25.65
2022-09-02T11:39:36.291Z,25.70
2022-09-02T11:42:49.947Z,25.83
2022-09-02T11:43:59.126Z,25.74
2022-09-02T11:45:19.580Z,25.77
2022-09-02T11:46:50.902Z,25.79
2022-09-02T11:48:08.802Z,25.81
2022-09-02T11:49:39.950Z,25.83
2022-09-02T11:51:04.039Z,25.84
2022-09-02T11:52:18.877Z,25.77
2022-09-02T11:53:46.045Z,25.81
2022-09-02T11:54:53.179Z,25.84
2022-09-02T11:56:04.768Z,25.82
2022-09-02T11:57:11.363Z,25.80
2022-09-02T11:58:50.041Z,25.80
2022-09-02T11:59:51.803Z,25.86
2022-09-02T12:00:56.549Z,25.81
2022-09-02T12:01:58.414Z,25.81
2022-09-02T12:03:12.201Z,25.78
2022-09-02T12:06:04.739Z,25.85
2022-09-02T12:07:09.125Z,25.86
2022-09-02T12:08:35.046Z,25.83
2022-09-02T12:09:57.184Z,25.90
2022-09-02T12:11:02.215Z,25.88
2022-09-02T12:12:04.091Z,25.83
2022-09-02T12:13:18.837Z,25.84
2022-09-02T12:14:43.794Z,25.85
2022-09-02T12:15:45.651Z,25.89
2022-09-02T12:17:05.744Z,25.67
2022-09-02T12:18:32.087Z,25.90
2022-09-02T12:19:42.945Z,25.87
2022-09-02T12:20:51.115Z,25.88
2022-09-02T12:22:18.086Z,25.90
2022-09-02T12:23:51.413Z,25.93
2022-09-02T12:24:57.710Z,25.92
2022-09-02T12:26:11.874Z,25.88
2022-09-02T12:27:25.523Z,25.89
2022-09-02T12:28:30.652Z,25.86
2022-09-02T12:29:34.119Z,25.85
2022-09-02T12:30:54.802Z,25.88
2022-09-02T12:31:57.471Z,25.87
2022-09-02T12:33:05.173Z,25.83
2022-09-02T12:34:25.617Z,25.88
2022-09-02T12:35:39.672Z,25.86
2022-09-02T12:36:43.854Z,25.87
2022-09-02T12:37:54.221Z,25.84
2022-09-02T12:39:24.864Z,25.88
2022-09-02T12:40:34.208Z,25.89
2022-09-02T12:41:43.495Z,25.88
2022-09-02T12:42:48.341Z,25.85
2022-09-02T12:43:57.796Z,25.79
2022-09-02T12:45:08.466Z,25.84
2022-09-02T12:46:44.081Z,25.90
2022-09-02T12:47:46.450Z,25.88
2022-09-02T12:49:05.880Z,25.89
2022-09-02T12:50:13.163Z,25.89
2022-09-02T12:52:13.118Z,25.92
2022-09-02T12:53:23.528Z,25.99
2022-09-02T12:54:31.502Z,25.95
2022-09-02T12:55:36.182Z,25.92
2022-09-02T12:56:38.779Z,25.90
2022-09-02T12:57:44.307Z,25.84
2022-09-02T12:58:50.443Z,25.88
2022-09-02T12:59:59.552Z,25.88
2022-09-02T13:01:22.403Z,25.91
2022-09-02T13:02:26.874Z,25.94
2022-09-02T13:03:49.907Z,25.76
2022-09-02T13:05:33.193Z,25.97
2022-09-02T13:06:56.827Z,26.03
2022-09-02T13:08:22.866Z,25.99
2022-09-02T13:09:59.751Z,26.00
2022-09-02T13:11:19.694Z,26.01
2022-09-02T13:12:39.772Z,26.01
2022-09-02T13:13:59.791Z,25.99
2022-09-02T13:15:25.907Z,25.97
2022-09-02T13:16:39.421Z,25.83
2022-09-02T13:17:48.523Z,25.98
2022-09-02T13:19:08.627Z,25.95
2022-09-02T13:20:23.293Z,25.95
2022-09-02T13:21:48.242Z,25.95
2022-09-02T13:23:04.142Z,25.97
2022-09-02T13:24:23.894Z,25.98
2022-09-02T13:25:58.718Z,26.00
2022-09-02T13:27:11.758Z,25.96
2022-09-02T13:28:31.975Z,25.98
2022-09-02T13:30:02.598Z,26.03
2022-09-02T13:31:24.137Z,26.03
2022-09-02T13:32:29.250Z,25.95
2022-09-02T13:33:31.055Z,25.90
2022-09-02T13:34:32.897Z,25.93
2022-09-02T13:35:39.428Z,25.91
2022-09-02T13:36:44.318Z,25.91
2022-09-02T13:37:55.977Z,25.91
2022-09-02T13:39:19.701Z,25.91
2022-09-02T13:40:36.523Z,25.98
2022-09-02T13:41:38.610Z,25.99
2022-09-02T13:43:10.155Z,25.96
2022-09-02T13:44:25.075Z,26.01
2022-09-02T13:45:34.352Z,26.00
2022-09-02T13:46:52.271Z,26.00
2022-09-02T13:48:16.098Z,25.91
2022-09-02T13:49:24.514Z,26.02
2022-09-02T13:50:30.016Z,26.00
2022-09-02T13:51:34.183Z,25.92
2022-09-02T13:53:34.516Z,25.98
2022-09-02T13:55:23.531Z,26.06
2022-09-02T13:56:30.847Z,26.03
2022-09-02T13:57:32.759Z,26.04
2022-09-02T13:58:36.926Z,26.01
2022-09-02T13:59:41.170Z,26.02
2022-09-02T14:00:43.176Z,26.03
2022-09-02T14:01:45.570Z,26.03
2022-09-02T14:03:03.175Z,26.05
2022-09-02T14:04:09.972Z,26.07
2022-09-02T14:05:22.285Z,26.09
2022-09-02T14:06:36.685Z,26.08
2022-09-02T14:07:45.019Z,26.12
2022-09-02T14:08:47.126Z,26.12
2022-09-02T14:09:49.663Z,26.11
2022-09-02T14:10:53.925Z,26.10
2022-09-02T14:11:58.464Z,26.09
2022-09-02T14:13:03.402Z,26.11
2022-09-02T14:14:05.619Z,26.07
2022-09-02T14:15:10.442Z,26.04
2022-09-02T14:16:44.670Z,26.20
2022-09-02T14:17:46.494Z,26.21
2022-09-02T14:19:17.283Z,26.23
2022-09-02T14:20:22.374Z,26.22
2022-09-02T14:21:24.147Z,26.16
2022-09-02T14:22:30.714Z,26.05
2022-09-02T14:23:34.915Z,26.16
2022-09-02T14:24:41.318Z,26.17
2022-09-02T14:25:59.995Z,26.17
2022-09-02T14:27:01.814Z,26.20
2022-09-02T14:28:10.954Z,26.17
2022-09-02T14:29:16.144Z,26.17
2022-09-02T14:30:39.138Z,26.21
2022-09-02T14:31:41.046Z,26.20
2022-09-02T14:32:42.903Z,26.18
2022-09-02T14:33:45.879Z,26.16
2022-09-02T14:34:49.382Z,26.16
2022-09-02T14:36:08.806Z,25.98
2022-09-02T14:37:28.753Z,26.21
2022-09-02T14:38:47.759Z,26.19